createdAt,value
2023-05-03T00:01:31.985Z,55.56
2023-05-03T00:03:59.755Z,55.45
2023-05-03T00:06:28.026Z,55.43
2023-05-03T00:08:55.708Z,55.73
2023-05-03T00:11:23.327Z,55.44
2023-05-03T00:13:50.938Z,55.56
2023-05-03T00:16:19.999Z,55.46
2023-05-03T00:18:49.090Z,55.39
2023-05-03T00:21:17.011Z,55.39
2023-05-03T00:23:44.568Z,55.49
2023-05-03T00:26:12.215Z,55.23
2023-05-03T00:28:39.893Z,55.37
2023-05-03T00:31:09.407Z,55.44
2023-05-03T00:33:39.023Z,55.52
2023-05-03T00:36:10.536Z,55.47
2023-05-03T00:38:38.499Z,55.28
2023-05-03T00:41:06.825Z,55.48
2023-05-03T00:43:35.692Z,55.35
2023-05-03T00:46:15.816Z,55.27
2023-05-03T00:48:46.235Z,55.20
2023-05-03T00:51:15.419Z,55.29
2023-05-03T00:53:43.709Z,55.20
2023-05-03T00:56:12.287Z,55.07
2023-05-03T00:58:40.485Z,55.24
2023-05-03T01:01:08.757Z,55.23
2023-05-03T01:03:37.982Z,55.38
2023-05-03T01:06:14.700Z,55.30
2023-05-03T01:08:50.426Z,55.34
2023-05-03T01:11:25.532Z,55.11
2023-05-03T01:13:57.187Z,55.29
2023-05-03T01:16:32.202Z,55.39
2023-05-03T01:19:04.928Z,54.92
2023-05-03T01:21:35.540Z,55.02
2023-05-03T01:24:08.604Z,55.00
2023-05-03T01:26:37.589Z,55.09
2023-05-03T01:29:06.830Z,55.15
2023-05-03T01:31:39.428Z,55.28
2023-05-03T01:34:19.435Z,54.83
2023-05-03T01:36:47.481Z,55.13
2023-05-03T01:39:19.562Z,55.31
2023-05-03T01:41:51.825Z,55.14
2023-05-03T01:44:20.533Z,54.87
2023-05-03T01:46:49.683Z,54.87
2023-05-03T01:49:17.301Z,55.09
2023-05-03T01:51:44.913Z,55.06
2023-05-03T01:54:12.590Z,54.94
2023-05-03T01:56:40.245Z,55.09
2023-05-03T01:59:09.307Z,54.83
2023-05-03T02:01:36.894Z,55.00
2023-05-03T02:04:04.698Z,54.81
2023-05-03T02:06:32.655Z,54.92
2023-05-03T02:09:00.284Z,54.81
2023-05-03T02:11:27.888Z,55.11
2023-05-03T02:13:55.785Z,54.86
2023-05-03T02:16:24.884Z,54.68
2023-05-03T02:18:53.769Z,55.14
2023-05-03T02:21:21.464Z,54.82
2023-05-03T02:23:49.122Z,54.66
2023-05-03T02:26:16.726Z,54.94
2023-05-03T02:28:44.398Z,54.83
2023-05-03T02:31:13.549Z,54.91
2023-05-03T02:33:42.651Z,54.82
2023-05-03T02:36:10.525Z,54.72
2023-05-03T02:38:38.262Z,55.05
2023-05-03T02:41:06.062Z,54.79
2023-05-03T02:43:33.637Z,54.87
2023-05-03T02:46:01.401Z,54.89
2023-05-03T02:48:29.104Z,54.60
2023-05-03T02:50:58.299Z,55.00
2023-05-03T02:53:26.065Z,54.64
2023-05-03T02:55:53.730Z,54.76
2023-05-03T02:58:21.331Z,54.78
2023-05-03T03:00:48.981Z,54.90
2023-05-03T03:03:16.709Z,54.61
2023-05-03T03:05:44.377Z,54.58
2023-05-03T03:08:13.339Z,54.99
2023-05-03T03:10:40.952Z,54.48
2023-05-03T03:13:08.622Z,54.67
2023-05-03T03:15:36.263Z,54.54
2023-05-03T03:18:04.199Z,54.69
2023-05-03T03:20:32.154Z,54.83
2023-05-03T03:22:59.851Z,54.87
2023-05-03T03:25:28.886Z,54.80
2023-05-03T03:27:56.904Z,54.55
2023-05-03T03:30:24.532Z,54.56
2023-05-03T03:32:52.225Z,54.91
2023-05-03T03:35:20.668Z,54.41
2023-05-03T03:37:48.374Z,54.40
2023-05-03T03:40:16.215Z,54.58
2023-05-03T03:42:45.295Z,54.40
2023-05-03T03:45:13.023Z,54.71
2023-05-03T03:47:40.867Z,54.46
2023-05-03T03:50:08.887Z,54.42
2023-05-03T03:52:36.512Z,54.53
2023-05-03T03:55:04.366Z,54.40
2023-05-03T03:57:32.091Z,54.64
2023-05-03T04:00:01.688Z,54.42
2023-05-03T04:02:29.648Z,54.32
2023-05-03T04:04:57.374Z,54.43
2023-05-03T04:07:24.989Z,54.56
2023-05-03T04:09:53.140Z,54.36
2023-05-03T04:12:20.831Z,54.37
2023-05-03T04:14:48.627Z,54.73
2023-05-03T04:17:17.607Z,54.53
2023-05-03T04:19:45.273Z,54.26
2023-05-03T04:22:12.891Z,54.13
2023-05-03T04:24:40.618Z,54.34
2023-05-03T04:27:08.850Z,54.59
2023-05-03T04:29:38.658Z,54.37
2023-05-03T04:32:06.787Z,54.41
2023-05-03T04:34:35.978Z,54.28
2023-05-03T04:37:05.122Z,54.25
2023-05-03T04:39:32.972Z,54.34
2023-05-03T04:42:01.317Z,54.32
2023-05-03T04:44:29.400Z,54.27
2023-05-03T04:46:57.058Z,54.22
2023-05-03T04:49:24.680Z,54.24
2023-05-03T04:51:54.490Z,54.16
2023-05-03T04:54:23.372Z,54.62
2023-05-03T04:56:51.597Z,54.19
2023-05-03T04:59:19.181Z,54.38
2023-05-03T05:01:47.143Z,54.36
2023-05-03T05:04:14.913Z,54.38
2023-05-03T05:06:42.665Z,54.24
2023-05-03T05:09:24.432Z,54.43
2023-05-03T05:11:53.949Z,54.37
2023-05-03T05:14:24.037Z,54.28
2023-05-03T05:16:52.094Z,54.13
2023-05-03T05:19:19.829Z,54.19
2023-05-03T05:21:48.072Z,54.28
2023-05-03T05:24:17.101Z,54.10
2023-05-03T05:26:45.052Z,54.34
2023-05-03T05:29:12.796Z,54.25
2023-05-03T05:31:40.751Z,54.44
2023-05-03T05:34:08.512Z,54.34
2023-05-03T05:36:36.271Z,54.25
2023-05-03T05:39:04.626Z,54.28
2023-05-03T05:41:33.795Z,53.97
2023-05-03T05:44:01.493Z,53.84
2023-05-03T05:46:29.160Z,54.38
2023-05-03T05:48:56.913Z,53.92
2023-05-03T05:51:24.559Z,54.05
2023-05-03T05:53:52.169Z,54.16
2023-05-03T05:56:19.811Z,54.04
2023-05-03T05:58:48.745Z,53.82
2023-05-03T06:01:16.404Z,54.04
2023-05-03T06:03:44.036Z,54.00
2023-05-03T06:06:11.768Z,54.28
2023-05-03T06:08:39.384Z,53.96
2023-05-03T06:11:07.807Z,54.03
2023-05-03T06:13:38.790Z,54.14
2023-05-03T06:16:08.378Z,53.82
2023-05-03T06:18:35.978Z,53.89
2023-05-03T06:21:03.606Z,53.80
2023-05-03T06:23:32.519Z,53.95
2023-05-03T06:26:00.228Z,53.77
2023-05-03T06:28:27.938Z,54.06
2023-05-03T06:30:55.916Z,53.84
2023-05-03T06:33:25.495Z,53.62
2023-05-03T06:35:53.155Z,53.72
2023-05-03T06:38:21.322Z,53.88
2023-05-03T06:40:50.008Z,53.90
2023-05-03T06:43:17.994Z,54.07
2023-05-03T06:45:46.042Z,53.78
2023-05-03T06:48:13.782Z,53.61
2023-05-03T06:50:42.877Z,53.63
2023-05-03T06:53:10.569Z,53.59
2023-05-03T06:55:38.168Z,54.10
2023-05-03T06:58:10.045Z,53.68
2023-05-03T07:00:39.064Z,53.86
2023-05-03T07:03:07.067Z,54.10
2023-05-03T07:05:35.210Z,54.09
2023-05-03T07:08:04.625Z,53.85
2023-05-03T07:10:32.314Z,53.82
2023-05-03T07:12:59.959Z,53.86
2023-05-03T07:15:28.073Z,54.09
2023-05-03T07:17:55.815Z,53.56
2023-05-03T07:20:23.521Z,53.90
2023-05-03T07:22:51.148Z,53.71
2023-05-03T07:25:20.345Z,53.73
2023-05-03T07:27:47.963Z,53.81
2023-05-03T07:30:15.957Z,53.74
2023-05-03T07:32:43.782Z,53.57
2023-05-03T07:35:12.142Z,53.52
2023-05-03T07:37:39.922Z,53.58
2023-05-03T07:40:09.759Z,53.83
2023-05-03T07:42:38.838Z,53.20
2023-05-03T07:45:07.809Z,53.64
2023-05-03T07:47:38.128Z,53.23
2023-05-03T07:50:07.314Z,53.24
2023-05-03T07:52:37.344Z,53.28
2023-05-03T07:55:06.753Z,53.58
2023-05-03T07:57:34.432Z,53.71
2023-05-03T08:00:04.519Z,53.58
2023-05-03T08:02:32.623Z,53.70
2023-05-03T08:05:00.622Z,53.63
2023-05-03T08:07:29.694Z,53.74
2023-05-03T08:09:58.581Z,53.70
2023-05-03T08:12:26.824Z,53.67
2023-05-03T08:14:55.502Z,53.63
2023-05-03T08:17:24.662Z,53.48
2023-05-03T08:19:52.262Z,53.57
2023-05-03T08:22:20.622Z,53.82
2023-05-03T08:24:48.275Z,53.77
2023-05-03T08:27:15.890Z,53.84
2023-05-03T08:29:43.529Z,53.82
2023-05-03T08:32:11.284Z,53.77
2023-05-03T08:34:40.684Z,53.57
2023-05-03T08:37:08.314Z,53.90
2023-05-03T08:39:35.966Z,53.74
2023-05-03T08:42:08.198Z,53.83
2023-05-03T08:44:39.437Z,53.65
2023-05-03T08:47:07.496Z,53.14
2023-05-03T08:49:36.780Z,53.57
2023-05-03T08:52:07.571Z,53.31
2023-05-03T08:54:35.244Z,53.68
2023-05-03T08:57:02.983Z,54.08
2023-05-03T08:59:30.709Z,54.12
2023-05-03T09:01:58.492Z,53.97
2023-05-03T09:04:34.768Z,54.17
2023-05-03T09:07:10.434Z,54.31
2023-05-03T09:09:38.367Z,54.18
2023-05-03T09:12:06.838Z,54.16
2023-05-03T09:14:43.730Z,54.35
2023-05-03T09:17:19.256Z,54.16
2023-05-03T09:19:54.548Z,54.34
2023-05-03T09:22:24.248Z,52.71
2023-05-03T09:24:55.786Z,52.05
2023-05-03T09:27:24.990Z,51.80
2023-05-03T09:29:53.386Z,51.43
2023-05-03T09:32:21.992Z,51.22
2023-05-03T09:34:49.777Z,51.69
2023-05-03T09:37:17.477Z,52.01
2023-05-03T09:39:47.819Z,51.59
2023-05-03T09:42:17.026Z,51.65
2023-05-03T09:44:48.650Z,51.71
2023-05-03T09:47:16.569Z,50.77
2023-05-03T09:49:45.057Z,50.50
2023-05-03T09:52:13.254Z,50.10
2023-05-03T09:54:41.091Z,50.18
2023-05-03T09:57:10.149Z,50.11
2023-05-03T09:59:39.898Z,50.08
2023-05-03T10:02:09.021Z,49.91
2023-05-03T10:04:41.602Z,50.11
2023-05-03T10:07:13.480Z,50.41
2023-05-03T10:09:43.026Z,50.14
2023-05-03T10:12:17.094Z,49.94
2023-05-03T10:14:46.791Z,50.16
2023-05-03T10:17:19.762Z,50.11
2023-05-03T10:19:51.801Z,50.36
2023-05-03T10:22:19.455Z,50.35
2023-05-03T10:25:09.448Z,50.20
2023-05-03T10:27:52.373Z,50.58
2023-05-03T10:30:32.387Z,50.07
2023-05-03T10:33:00.715Z,50.19
2023-05-03T10:35:29.353Z,50.14
2023-05-03T10:37:58.590Z,50.30
2023-05-03T10:40:43.080Z,50.07
2023-05-03T10:43:46.871Z,50.50
2023-05-03T10:46:34.845Z,49.38
2023-05-03T10:49:22.437Z,48.29
2023-05-03T10:51:50.625Z,48.06
2023-05-03T10:54:19.507Z,47.84
2023-05-03T10:56:55.334Z,47.72
2023-05-03T10:59:26.094Z,47.79
2023-05-03T11:01:54.560Z,47.63
2023-05-03T11:04:40.653Z,47.28
2023-05-03T11:07:10.107Z,47.45
2023-05-03T11:09:38.580Z,47.82
2023-05-03T11:12:08.579Z,48.32
2023-05-03T11:14:39.632Z,47.39
2023-05-03T11:17:07.443Z,47.74
2023-05-03T11:19:35.881Z,47.61
2023-05-03T11:22:03.653Z,47.74
2023-05-03T11:24:31.390Z,47.56
2023-05-03T11:26:59.131Z,47.59
2023-05-03T11:29:27.284Z,48.00
2023-05-03T11:31:56.905Z,47.82
2023-05-03T11:34:25.550Z,47.79
2023-05-03T11:36:53.191Z,47.85
2023-05-03T11:39:21.539Z,47.45
2023-05-03T11:42:04.464Z,47.55
2023-05-03T11:44:32.417Z,46.95
2023-05-03T11:47:01.999Z,46.91
2023-05-03T11:49:30.227Z,46.83
2023-05-03T11:51:57.944Z,46.49
2023-05-03T11:54:27.965Z,46.27
2023-05-03T11:57:00.002Z,46.35
2023-05-03T11:59:38.572Z,46.44
2023-05-03T12:02:09.245Z,46.47
2023-05-03T12:04:41.446Z,46.86
2023-05-03T12:07:11.024Z,46.39
2023-05-03T12:09:39.939Z,46.38
2023-05-03T12:12:10.459Z,46.52
2023-05-03T12:14:58.716Z,46.92
2023-05-03T12:17:39.092Z,46.43
2023-05-03T12:22:51.228Z,46.63
2023-05-03T12:25:20.918Z,46.31
2023-05-03T12:28:01.968Z,46.21
2023-05-03T12:30:40.048Z,46.01
2023-05-03T12:33:10.716Z,46.16
2023-05-03T12:35:40.837Z,45.87
2023-05-03T12:38:10.390Z,45.53
2023-05-03T12:40:39.386Z,45.97
2023-05-03T12:43:07.563Z,45.85
2023-05-03T12:45:38.628Z,46.00
2023-05-03T12:48:09.725Z,46.47
2023-05-03T12:50:39.441Z,47.02
2023-05-03T12:53:10.003Z,46.70
2023-05-03T12:55:43.104Z,47.13
2023-05-03T12:58:43.282Z,47.14
2023-05-03T13:03:34.352Z,46.97
2023-05-03T13:06:12.705Z,47.66
2023-05-03T13:08:49.335Z,47.01
2023-05-03T13:11:19.052Z,47.53
2023-05-03T13:13:47.101Z,47.47
2023-05-03T13:16:14.965Z,47.70
2023-05-03T13:18:45.284Z,47.64
2023-05-03T13:21:13.095Z,47.68
2023-05-03T13:23:40.793Z,47.74
2023-05-03T13:26:08.483Z,47.63
2023-05-03T13:28:36.186Z,47.93
2023-05-03T13:31:03.961Z,47.67
2023-05-03T13:33:31.888Z,47.74
2023-05-03T13:36:00.842Z,47.63
2023-05-03T13:38:28.519Z,47.24
2023-05-03T13:40:56.119Z,47.43
2023-05-03T13:43:24.024Z,46.98
2023-05-03T13:45:52.740Z,46.37
2023-05-03T13:48:20.516Z,46.34
2023-05-03T13:50:48.173Z,46.87
2023-05-03T13:53:17.756Z,46.97
2023-05-03T13:55:45.407Z,46.92
2023-05-03T13:58:13.289Z,47.05
2023-05-03T14:00:41.043Z,47.01
2023-05-03T14:03:08.900Z,47.22
2023-05-03T14:05:36.776Z,47.18
2023-05-03T14:08:05.061Z,47.21
2023-05-03T14:10:36.844Z,47.14
2023-05-03T14:13:04.684Z,47.21
2023-05-03T14:15:32.563Z,47.32
2023-05-03T14:18:03.019Z,47.37
2023-05-03T14:20:34.341Z,47.20
2023-05-03T14:23:02.302Z,47.13
2023-05-03T14:25:30.164Z,47.33
2023-05-03T14:27:59.100Z,47.31
2023-05-03T14:30:26.779Z,47.30
2023-05-03T14:32:54.581Z,47.46
2023-05-03T14:35:22.713Z,47.63
2023-05-03T14:37:50.362Z,47.69
2023-05-03T14:40:18.267Z,47.56
2023-05-03T14:42:45.983Z,47.54
2023-05-03T14:45:15.372Z,47.73
2023-05-03T14:47:43.092Z,47.77
2023-05-03T14:50:11.595Z,47.51
2023-05-03T14:52:39.309Z,47.78
2023-05-03T14:55:08.450Z,47.40
2023-05-03T14:57:36.414Z,47.73
2023-05-03T15:00:06.656Z,47.75
2023-05-03T15:02:35.863Z,47.80
2023-05-03T15:05:04.709Z,47.94
2023-05-03T15:07:32.688Z,47.81
2023-05-03T15:10:03.739Z,47.88
2023-05-03T15:12:31.710Z,47.68
2023-05-03T15:14:59.620Z,48.09
2023-05-03T15:17:27.357Z,48.39
2023-05-03T15:19:56.675Z,48.17
2023-05-03T15:22:24.358Z,48.06
2023-05-03T15:24:52.062Z,48.27
2023-05-03T15:27:19.689Z,48.40
2023-05-03T15:29:47.300Z,48.15
2023-05-03T15:32:15.133Z,48.54
2023-05-03T15:34:42.923Z,47.92
2023-05-03T15:37:12.954Z,47.97
2023-05-03T15:39:40.599Z,47.80
2023-05-03T15:42:08.528Z,48.01
2023-05-03T15:44:36.251Z,48.36
2023-05-03T15:47:03.943Z,48.63
2023-05-03T15:49:31.704Z,48.72
2023-05-03T15:51:59.312Z,48.55
2023-05-03T15:54:28.320Z,48.68
2023-05-03T15:56:56.339Z,48.84
2023-05-03T15:59:24.000Z,48.98
2023-05-03T16:01:52.261Z,48.87
2023-05-03T16:04:19.934Z,48.68
2023-05-03T16:06:47.574Z,48.74
2023-05-03T16:09:16.087Z,49.11
2023-05-03T16:11:45.064Z,49.28
2023-05-03T16:14:12.911Z,49.69
2023-05-03T16:16:41.320Z,49.79
2023-05-03T16:19:09.246Z,50.42
2023-05-03T16:21:36.940Z,50.49
2023-05-03T16:24:04.939Z,51.12
2023-05-03T16:26:34.395Z,51.01
2023-05-03T16:29:03.362Z,50.92
2023-05-03T16:31:31.118Z,51.59
2023-05-03T16:33:59.039Z,51.89
2023-05-03T16:36:27.931Z,51.84
2023-05-03T16:38:55.740Z,52.08
2023-05-03T16:41:24.181Z,52.66
2023-05-03T16:43:52.174Z,53.04
2023-05-03T16:46:23.003Z,53.47
2023-05-03T16:48:51.252Z,53.29
2023-05-03T16:51:21.769Z,53.06
2023-05-03T16:53:49.396Z,53.53
2023-05-03T16:56:16.982Z,53.36
2023-05-03T16:58:44.986Z,53.45
2023-05-03T17:01:13.267Z,53.97
2023-05-03T17:03:42.658Z,54.09
2023-05-03T17:06:10.451Z,54.26
2023-05-03T17:08:38.046Z,54.39
2023-05-03T17:11:08.422Z,54.22
2023-05-03T17:13:36.546Z,54.34
2023-05-03T17:16:09.001Z,54.43
2023-05-03T17:18:37.833Z,54.41
2023-05-03T17:21:08.206Z,54.16
2023-05-03T17:23:37.997Z,54.11
2023-05-03T17:26:08.326Z,53.94
2023-05-03T17:28:37.081Z,54.17
2023-05-03T17:31:06.319Z,53.95
2023-05-03T17:33:34.879Z,54.08
2023-05-03T17:36:04.863Z,54.25
2023-05-03T17:38:34.464Z,54.06
2023-05-03T17:41:06.310Z,54.21
2023-05-03T17:43:33.826Z,54.09
2023-05-03T17:46:08.540Z,54.11
2023-05-03T17:48:37.811Z,54.61
2023-05-03T17:51:05.640Z,54.47
2023-05-03T17:53:35.579Z,54.54
2023-05-03T17:56:03.297Z,54.26
2023-05-03T17:58:30.958Z,54.28
2023-05-03T18:00:58.581Z,54.70
2023-05-03T18:03:27.413Z,54.75
2023-05-03T18:05:55.211Z,55.12
2023-05-03T18:08:22.831Z,55.00
2023-05-03T18:10:51.922Z,54.46
2023-05-03T18:13:19.670Z,54.95
2023-05-03T18:15:47.317Z,54.83
2023-05-03T18:18:14.926Z,55.27
2023-05-03T18:20:42.514Z,55.18
2023-05-03T18:23:10.183Z,54.87
2023-05-03T18:25:37.816Z,54.77
2023-05-03T18:28:06.924Z,54.66
2023-05-03T18:30:34.770Z,54.45
2023-05-03T18:33:02.474Z,54.23
2023-05-03T18:35:30.716Z,54.17
2023-05-03T18:37:58.343Z,53.99
2023-05-03T18:40:26.202Z,53.88
2023-05-03T18:42:53.906Z,54.05
2023-05-03T18:45:22.977Z,53.85
2023-05-03T18:47:51.058Z,53.95
2023-05-03T18:50:18.719Z,54.07
2023-05-03T18:52:46.495Z,53.84
2023-05-03T18:55:14.142Z,53.83
2023-05-03T18:57:42.510Z,53.89
2023-05-03T19:00:11.496Z,53.88
2023-05-03T19:02:40.805Z,53.71
2023-05-03T19:05:11.557Z,53.75
2023-05-03T19:07:42.860Z,53.95
2023-05-03T19:10:11.100Z,53.94
2023-05-03T19:12:40.694Z,53.90
2023-05-03T19:15:09.328Z,53.81
2023-05-03T19:17:37.023Z,53.56
2023-05-03T19:20:08.076Z,53.83
2023-05-03T19:22:35.702Z,53.62
2023-05-03T19:25:05.156Z,53.71
2023-05-03T19:27:33.200Z,53.75
2023-05-03T19:30:02.370Z,53.50
2023-05-03T19:32:30.335Z,53.60
2023-05-03T19:34:57.986Z,53.58
2023-05-03T19:37:27.013Z,53.89
2023-05-03T19:39:54.708Z,53.84
2023-05-03T19:42:22.310Z,53.87
2023-05-03T19:44:49.970Z,53.65
2023-05-03T19:47:17.628Z,53.76
2023-05-03T19:49:45.291Z,53.52
2023-05-03T19:52:12.933Z,53.61
2023-05-03T19:54:41.862Z,53.75
2023-05-03T19:57:09.576Z,53.64
2023-05-03T19:59:37.331Z,53.82
2023-05-03T20:02:05.064Z,53.79
2023-05-03T20:04:32.855Z,53.64
2023-05-03T20:07:00.943Z,53.95
2023-05-03T20:09:28.754Z,53.76
2023-05-03T20:11:59.670Z,53.63
2023-05-03T20:14:27.945Z,53.54
2023-05-03T20:16:59.154Z,53.89
2023-05-03T20:19:26.916Z,53.72
2023-05-03T20:21:54.634Z,53.81
2023-05-03T20:24:22.290Z,53.78
2023-05-03T20:26:49.922Z,53.84
2023-05-03T20:29:19.084Z,53.80
2023-05-03T20:31:48.318Z,53.90
2023-05-03T20:34:16.631Z,53.47
2023-05-03T20:36:44.230Z,53.60
2023-05-03T20:39:12.204Z,53.53
2023-05-03T20:41:39.803Z,53.65
2023-05-03T20:44:07.688Z,53.63
2023-05-03T20:46:38.502Z,53.67
2023-05-03T20:49:08.261Z,53.73
2023-05-03T20:51:37.432Z,53.55
2023-05-03T20:54:05.124Z,53.48
2023-05-03T20:56:33.296Z,53.40
2023-05-03T20:59:00.945Z,53.76
2023-05-03T21:01:28.595Z,53.36
2023-05-03T21:03:57.769Z,53.62
2023-05-03T21:06:25.405Z,53.58
2023-05-03T21:08:53.075Z,53.54
2023-05-03T21:11:20.663Z,53.57
2023-05-03T21:13:48.307Z,53.42
2023-05-03T21:16:15.955Z,53.34
2023-05-03T21:18:43.659Z,53.47
2023-05-03T21:21:12.616Z,53.47
2023-05-03T21:23:40.280Z,53.32
2023-05-03T21:26:07.887Z,53.53
2023-05-03T21:28:35.523Z,53.16
2023-05-03T21:31:03.356Z,53.21
2023-05-03T21:33:30.931Z,53.52
2023-05-03T21:35:58.929Z,53.28
2023-05-03T21:38:28.150Z,53.38
2023-05-03T21:41:03.522Z,53.43
2023-05-03T21:43:31.112Z,53.38
2023-05-03T21:45:58.801Z,53.31
2023-05-03T21:48:26.417Z,53.43
2023-05-03T21:50:54.224Z,53.10
2023-05-03T21:53:22.170Z,53.39
2023-05-03T21:55:51.131Z,53.44
2023-05-03T21:58:19.002Z,53.34
2023-05-03T22:00:46.776Z,53.29
2023-05-03T22:03:15.635Z,52.97
2023-05-03T22:05:44.759Z,52.51
2023-05-03T22:08:14.289Z,52.42
2023-05-03T22:10:42.022Z,52.46
2023-05-03T22:13:11.284Z,52.64
2023-05-03T22:15:39.039Z,52.35
2023-05-03T22:18:06.899Z,52.46
2023-05-03T22:20:34.603Z,52.41
2023-05-03T22:23:02.682Z,52.57
2023-05-03T22:25:32.242Z,52.52
2023-05-03T22:28:00.716Z,52.84
2023-05-03T22:30:29.854Z,52.88
2023-05-03T22:32:57.500Z,53.08
2023-05-03T22:35:25.486Z,53.07
2023-05-03T22:37:53.326Z,52.90
2023-05-03T22:40:20.955Z,52.95
2023-05-03T22:42:48.613Z,52.92
2023-05-03T22:45:16.500Z,53.18
2023-05-03T22:47:45.610Z,53.41
2023-05-03T22:50:13.399Z,53.29
2023-05-03T22:52:41.134Z,53.07
2023-05-03T22:55:10.263Z,53.44
2023-05-03T22:57:37.856Z,53.20
2023-05-03T23:00:07.231Z,53.21
2023-05-03T23:02:35.076Z,53.40
2023-05-03T23:05:04.126Z,53.25
2023-05-03T23:07:31.790Z,53.53
2023-05-03T23:10:03.560Z,53.31
2023-05-03T23:12:31.896Z,53.36
2023-05-03T23:14:59.662Z,53.46
2023-05-03T23:17:27.536Z,53.38
2023-05-03T23:19:55.472Z,53.16
2023-05-03T23:22:24.583Z,53.39
2023-05-03T23:24:52.333Z,53.40
2023-05-03T23:27:19.955Z,53.53
2023-05-03T23:29:48.245Z,53.54
2023-05-03T23:32:16.316Z,53.37
2023-05-03T23:34:44.488Z,53.43
2023-05-03T23:37:12.132Z,53.70
2023-05-03T23:39:45.435Z,53.57
2023-05-03T23:42:13.532Z,53.40
2023-05-03T23:44:50.889Z,53.43
2023-05-03T23:47:21.928Z,53.62
2023-05-03T23:49:49.595Z,53.58
2023-05-03T23:52:19.137Z,53.48
2023-05-03T23:54:48.409Z,53.33
2023-05-03T23:57:16.209Z,53.68
2023-05-03T23:59:44.198Z,53.54
